Time;durP1;ratioP1;P1;durP2;ratioP2;P2;SDS_P1;SDS_P2;PMS_P1;PMS_P2;Temp;Humidity;BMP_temperature;BMP_pressure;BME280_temperature;BME280_humidity;BME280_pressure;Samples;Min_cycle;Max_cycle;Signal;HPM_P1;HPM_P2
2021/05/14 00:00:26;;;;;;;2.20;0.22;;;12.80;70.70;;;;;;4992808;28;20034;-80
2021/05/14 00:02:52;;;;;;;0.80;0.00;;;12.80;70.70;;;;;;5013181;28;20041;-80
2021/05/14 00:05:18;;;;;;;0.10;0.00;;;12.70;70.60;;;;;;5009460;28;20044;-80
2021/05/14 00:07:45;;;;;;;0.22;0.00;;;12.80;70.70;;;;;;5008383;28;20033;-80
2021/05/14 00:10:12;;;;;;;0.00;0.00;;;12.70;70.80;;;;;;5007173;28;20030;-80
2021/05/14 00:12:38;;;;;;;0.00;0.00;;;12.70;70.80;;;;;;5015218;28;20033;-80
2021/05/14 00:15:05;;;;;;;1.45;0.15;;;12.70;70.80;;;;;;5047848;28;20037;-78
2021/05/14 00:17:31;;;;;;;0.15;0.05;;;12.60;70.80;;;;;;5028100;28;20037;-80
2021/05/14 00:19:57;;;;;;;0.52;0.10;;;12.60;70.90;;;;;;5007867;28;20368;-80
2021/05/14 00:22:23;;;;;;;0.20;0.00;;;12.60;70.90;;;;;;5007775;28;20033;-80
2021/05/14 00:24:49;;;;;;;0.03;0.00;;;12.50;70.90;;;;;;5008346;28;20060;-80
2021/05/14 00:27:15;;;;;;;0.00;0.00;;;12.50;70.90;;;;;;5011583;28;20037;-80
2021/05/14 00:29:41;;;;;;;2.70;0.10;;;12.50;71.00;;;;;;5010091;28;20475;-80
2021/05/14 00:32:08;;;;;;;0.10;0.00;;;12.50;70.90;;;;;;5008209;28;20041;-80
2021/05/14 00:34:36;;;;;;;0.00;0.00;;;12.50;71.00;;;;;;5007901;28;20040;-80
2021/05/14 00:37:02;;;;;;;0.00;0.00;;;12.40;71.00;;;;;;5008864;28;20034;-80
2021/05/14 00:39:28;;;;;;;0.00;0.00;;;12.40;71.00;;;;;;5010589;28;20034;-80
2021/05/14 00:41:54;;;;;;;1.05;0.00;;;12.40;71.10;;;;;;5008717;28;20038;-80
2021/05/14 00:44:33;;;;;;;0.00;0.00;;;12.40;71.10;;;;;;5009779;28;20038;-80
2021/05/14 00:47:00;;;;;;;0.03;0.03;;;12.30;71.10;;;;;;5007880;28;20045;-80
2021/05/14 00:49:26;;;;;;;0.08;0.03;;;12.30;71.10;;;;;;5008400;28;20033;-80
2021/05/14 00:51:54;;;;;;;0.00;0.00;;;12.30;71.20;;;;;;5008068;28;20027;-80
2021/05/14 00:54:20;;;;;;;0.47;0.10;;;12.20;71.10;;;;;;4984515;28;735441;-80
2021/05/14 00:56:46;;;;;;;1.10;0.20;;;12.20;71.20;;;;;;5007887;28;20050;-80
2021/05/14 00:59:12;;;;;;;0.43;0.10;;;12.20;71.30;;;;;;5008967;28;20038;-80
2021/05/14 01:01:38;;;;;;;0.00;0.00;;;12.10;71.20;;;;;;4992994;28;20045;-80
2021/05/14 01:04:05;;;;;;;0.00;0.00;;;12.10;71.30;;;;;;4990670;28;20401;-80
2021/05/14 01:06:31;;;;;;;0.00;0.00;;;12.10;71.30;;;;;;5009426;28;20068;-80
2021/05/14 01:09:01;;;;;;;0.00;0.00;;;12.10;71.30;;;;;;5011406;28;20042;-80
2021/05/14 01:11:27;;;;;;;0.17;0.08;;;12.00;71.40;;;;;;5004972;28;20041;-80
2021/05/14 01:13:56;;;;;;;0.20;0.00;;;12.00;71.30;;;;;;5009194;28;20073;-80
2021/05/14 01:16:25;;;;;;;0.00;0.00;;;12.00;71.30;;;;;;5022817;28;20045;-80
2021/05/14 01:18:51;;;;;;;1.65;0.60;;;12.00;71.30;;;;;;5007311;28;22304;-80
2021/05/14 01:21:17;;;;;;;0.10;0.00;;;11.90;71.30;;;;;;5011068;28;20030;-80
2021/05/14 01:23:43;;;;;;;0.60;0.28;;;11.90;71.30;;;;;;5010562;28;20034;-80
2021/05/14 01:26:14;;;;;;;0.00;0.00;;;11.90;71.30;;;;;;5009373;28;20041;-80
2021/05/14 01:28:40;;;;;;;5.22;0.25;;;11.90;71.40;;;;;;5006764;28;20026;-79
2021/05/14 01:31:07;;;;;;;0.00;0.00;;;11.80;71.40;;;;;;5009636;28;20025;-80
2021/05/14 01:33:33;;;;;;;0.20;0.13;;;11.80;71.40;;;;;;5008419;28;20047;-80
2021/05/14 01:36:00;;;;;;;0.03;0.00;;;11.80;71.40;;;;;;5009876;28;20041;-80
2021/05/14 01:38:26;;;;;;;0.15;0.10;;;11.80;71.40;;;;;;5010106;28;20030;-80
2021/05/14 01:40:52;;;;;;;0.00;0.00;;;11.80;71.50;;;;;;5009785;28;20044;-80
2021/05/14 01:43:18;;;;;;;0.00;0.00;;;11.70;72.20;;;;;;5008926;28;20026;-80
2021/05/14 01:45:45;;;;;;;0.00;0.00;;;11.70;71.40;;;;;;5005757;28;20029;-80
2021/05/14 01:48:11;;;;;;;0.00;0.00;;;11.70;71.40;;;;;;5025126;28;20029;-80
2021/05/14 01:50:37;;;;;;;1.55;0.03;;;11.70;71.40;;;;;;5011675;28;20037;-80
2021/05/14 01:53:03;;;;;;;0.10;0.00;;;11.70;71.40;;;;;;5011161;28;20503;-80
2021/05/14 01:55:29;;;;;;;0.10;0.08;;;11.70;71.50;;;;;;5012195;28;20049;-80
2021/05/14 01:57:55;;;;;;;0.20;0.00;;;11.60;71.50;;;;;;5010871;28;20027;-80
2021/05/14 02:00:22;;;;;;;0.00;0.00;;;11.50;71.40;;;;;;5013235;28;20038;-80
2021/05/14 02:02:48;;;;;;;1.85;0.38;;;11.60;71.50;;;;;;5011646;28;20038;-80
2021/05/14 02:05:14;;;;;;;0.35;0.20;;;11.50;71.50;;;;;;4986995;28;20041;-80
2021/05/14 02:07:40;;;;;;;0.20;0.00;;;11.50;71.50;;;;;;5006042;28;20475;-80
2021/05/14 02:10:07;;;;;;;0.00;0.00;;;11.50;71.50;;;;;;5030687;28;20053;-80
2021/05/14 02:12:33;;;;;;;0.05;0.00;;;11.50;71.60;;;;;;4994216;28;20042;-80
2021/05/14 02:14:59;;;;;;;0.47;0.17;;;11.40;71.50;;;;;;5012377;28;20034;-80
2021/05/14 02:17:25;;;;;;;0.38;0.13;;;11.40;71.50;;;;;;5009480;28;20409;-80
2021/05/14 02:19:53;;;;;;;0.98;0.32;;;11.40;71.50;;;;;;5022295;28;20043;-80
2021/05/14 02:22:19;;;;;;;0.00;0.00;;;11.30;71.50;;;;;;5034779;28;20030;-80
2021/05/14 02:24:45;;;;;;;0.20;0.10;;;11.30;71.50;;;;;;5021422;28;20026;-80
2021/05/14 02:27:12;;;;;;;0.52;0.15;;;11.30;71.50;;;;;;5012439;28;20041;-79
2021/05/14 02:29:38;;;;;;;0.28;0.20;;;11.30;71.50;;;;;;5006777;28;20049;-80
2021/05/14 02:32:05;;;;;;;0.40;0.10;;;11.20;71.40;;;;;;5008977;28;20041;-80
2021/05/14 02:34:31;;;;;;;0.32;0.20;;;11.20;71.40;;;;;;5023880;28;20093;-80
2021/05/14 02:36:58;;;;;;;0.30;0.10;;;11.20;71.50;;;;;;5018236;28;20057;-79
2021/05/14 02:39:24;;;;;;;0.00;0.00;;;11.10;71.50;;;;;;5013316;28;20022;-79
2021/05/14 02:41:50;;;;;;;0.17;0.03;;;11.10;71.50;;;;;;5015389;28;20351;-80
2021/05/14 02:44:16;;;;;;;0.00;0.00;;;11.10;71.50;;;;;;5006325;28;20041;-79
2021/05/14 02:46:42;;;;;;;0.00;0.00;;;11.10;71.60;;;;;;5010484;28;20033;-80
2021/05/14 02:49:08;;;;;;;2.40;0.10;;;11.10;71.60;;;;;;5011206;28;20026;-79
2021/05/14 02:51:35;;;;;;;0.10;0.00;;;11.10;71.50;;;;;;4994606;28;20033;-79
2021/05/14 02:54:01;;;;;;;0.22;0.10;;;11.00;71.40;;;;;;5013522;28;20241;-80
2021/05/14 02:56:31;;;;;;;0.20;0.10;;;11.00;71.50;;;;;;5009764;28;20049;-79
2021/05/14 02:58:57;;;;;;;0.00;0.00;;;11.00;71.50;;;;;;5012455;28;20541;-80
2021/05/14 03:01:23;;;;;;;0.25;0.05;;;10.90;71.50;;;;;;5008231;28;20041;-79
2021/05/14 03:03:49;;;;;;;0.15;0.08;;;10.90;71.50;;;;;;4995334;28;20030;-80
2021/05/14 03:06:15;;;;;;;0.75;0.10;;;10.90;71.50;;;;;;5013182;28;20038;-79
2021/05/14 03:08:41;;;;;;;0.52;0.22;;;10.90;71.50;;;;;;4993222;28;20038;-80
2021/05/14 03:11:08;;;;;;;0.00;0.00;;;10.90;71.50;;;;;;5010022;28;20490;-80
2021/05/14 03:13:34;;;;;;;4.38;0.08;;;10.90;71.50;;;;;;5008629;28;20037;-80
2021/05/14 03:16:00;;;;;;;0.00;0.00;;;10.90;71.50;;;;;;5000996;28;20038;-80
2021/05/14 03:18:26;;;;;;;0.17;0.10;;;10.90;71.40;;;;;;5011552;28;20045;-80
2021/05/14 03:20:54;;;;;;;0.22;0.00;;;10.90;71.40;;;;;;5023450;28;20054;-79
2021/05/14 03:23:20;;;;;;;0.05;0.00;;;10.90;71.40;;;;;;5009382;28;20045;-81
2021/05/14 03:25:46;;;;;;;0.35;0.25;;;10.90;71.40;;;;;;5009782;28;20395;-80
2021/05/14 03:28:13;;;;;;;0.10;0.00;;;10.90;71.30;;;;;;5009387;28;20498;-81
2021/05/14 03:30:39;;;;;;;1.27;0.40;;;10.90;71.20;;;;;;5010744;28;20034;-79
2021/05/14 03:33:05;;;;;;;0.13;0.05;;;11.00;71.30;;;;;;4995980;28;20494;-80
2021/05/14 03:35:32;;;;;;;0.65;0.28;;;10.90;71.20;;;;;;4991707;28;20042;-81
2021/05/14 03:37:58;;;;;;;0.13;0.00;;;11.00;71.30;;;;;;5002731;28;20064;-80
2021/05/14 03:42:59;;;;;;;0.00;0.00;;;11.00;71.30;;;;;;5011739;28;20034;-80
2021/05/14 03:45:25;;;;;;;0.10;0.00;;;11.00;71.20;;;;;;4992560;28;20046;-80
2021/05/14 03:47:54;;;;;;;0.35;0.10;;;11.00;71.20;;;;;;4996160;28;20042;-80
2021/05/14 03:50:20;;;;;;;0.00;0.00;;;11.00;71.20;;;;;;5009478;28;20049;-80
2021/05/14 03:52:46;;;;;;;7.45;0.20;;;11.00;71.20;;;;;;5008759;28;20038;-80
2021/05/14 03:55:12;;;;;;;0.00;0.00;;;11.00;71.10;;;;;;5010115;28;20038;-80
2021/05/14 03:57:38;;;;;;;0.10;0.08;;;11.00;71.20;;;;;;5010835;28;20037;-80
2021/05/14 04:00:05;;;;;;;0.08;0.00;;;11.00;71.20;;;;;;5039838;28;20033;-80
2021/05/14 04:02:31;;;;;;;0.35;0.10;;;11.00;71.20;;;;;;5010587;28;20403;-80
2021/05/14 04:04:58;;;;;;;7.50;0.30;;;11.00;71.20;;;;;;5008206;28;20034;-80
2021/05/14 04:07:25;;;;;;;0.00;0.00;;;11.00;71.20;;;;;;5009705;28;20034;-80
2021/05/14 04:10:04;;;;;;;0.05;0.00;;;11.00;71.20;;;;;;5008315;28;20037;-80
2021/05/14 04:15:11;;;;;;;0.00;0.00;;;10.90;71.20;;;;;;5027927;28;20030;-79
2021/05/14 04:17:37;;;;;;;0.98;0.35;;;10.90;71.20;;;;;;5007544;28;20046;-80
2021/05/14 04:20:07;;;;;;;7.90;0.43;;;10.90;71.30;;;;;;5021901;28;20029;-80
2021/05/14 04:22:33;;;;;;;0.00;0.00;;;10.90;71.30;;;;;;5034922;28;20010;-80
2021/05/14 04:24:59;;;;;;;0.80;0.35;;;10.90;71.30;;;;;;5034970;28;20026;-80
2021/05/14 04:27:25;;;;;;;0.22;0.10;;;10.90;71.20;;;;;;5036628;28;20022;-79
2021/05/14 04:29:51;;;;;;;0.20;0.10;;;10.90;71.20;;;;;;5030729;28;20046;-80
2021/05/14 04:32:18;;;;;;;0.63;0.17;;;10.90;71.20;;;;;;5003274;28;20054;-79
2021/05/14 04:34:44;;;;;;;0.00;0.00;;;11.00;71.20;;;;;;5009423;28;20495;-80
2021/05/14 04:37:11;;;;;;;1.00;0.20;;;11.00;71.20;;;;;;4994239;28;20053;-80
2021/05/14 04:39:37;;;;;;;0.00;0.00;;;11.00;71.30;;;;;;4993082;28;20038;-80
2021/05/14 04:42:03;;;;;;;0.00;0.00;;;11.00;71.20;;;;;;5010290;28;20042;-80
2021/05/14 04:44:30;;;;;;;0.20;0.05;;;11.00;71.30;;;;;;5009113;28;20045;-80
2021/05/14 04:46:57;;;;;;;0.10;0.00;;;11.00;71.30;;;;;;5008039;28;20501;-80
2021/05/14 04:49:23;;;;;;;0.65;0.10;;;11.00;71.30;;;;;;5008898;28;20038;-80
2021/05/14 04:51:49;;;;;;;0.57;0.10;;;11.00;71.30;;;;;;5009136;28;20038;-80
2021/05/14 04:54:15;;;;;;;0.45;0.10;;;11.00;71.40;;;;;;5010847;28;20505;-80
2021/05/14 04:56:41;;;;;;;0.63;0.10;;;11.00;71.40;;;;;;5008784;28;20042;-81
2021/05/14 04:59:07;;;;;;;0.05;0.00;;;11.10;71.40;;;;;;5008654;28;20030;-82
2021/05/14 05:01:33;;;;;;;0.00;0.00;;;11.00;71.30;;;;;;4990373;28;20395;-81
2021/05/14 05:03:59;;;;;;;0.08;0.05;;;11.10;71.40;;;;;;4992963;28;20045;-80
2021/05/14 05:06:25;;;;;;;0.00;0.00;;;11.10;71.40;;;;;;5009332;28;20041;-80
2021/05/14 05:08:52;;;;;;;0.13;0.00;;;11.00;71.40;;;;;;5020529;28;20031;-80
2021/05/14 05:11:18;;;;;;;0.10;0.00;;;11.10;71.60;;;;;;5007346;28;20042;-81
2021/05/14 05:13:44;;;;;;;1.38;0.22;;;11.00;71.60;;;;;;4990691;28;20046;-80
2021/05/14 05:16:10;;;;;;;0.17;0.00;;;11.00;71.60;;;;;;5024280;28;20046;-79
2021/05/14 05:18:37;;;;;;;0.10;0.05;;;11.10;71.60;;;;;;5008207;28;20026;-79
2021/05/14 05:21:03;;;;;;;0.00;0.00;;;11.10;71.60;;;;;;5008723;28;20053;-80
2021/05/14 05:23:29;;;;;;;0.08;0.00;;;11.10;71.60;;;;;;5013061;28;20041;-77
2021/05/14 05:25:55;;;;;;;0.00;0.00;;;11.10;71.60;;;;;;5011521;28;20410;-79
2021/05/14 05:28:29;;;;;;;0.00;0.00;;;11.10;71.60;;;;;;5010939;28;20034;-80
2021/05/14 05:30:56;;;;;;;0.05;0.00;;;11.20;71.70;;;;;;4994916;28;20053;-80
2021/05/14 05:33:22;;;;;;;0.10;0.00;;;11.20;71.70;;;;;;5013124;28;20042;-79
2021/05/14 05:35:48;;;;;;;0.00;0.00;;;11.20;71.70;;;;;;5012843;28;20042;-80
2021/05/14 05:38:19;;;;;;;0.00;0.00;;;11.20;71.70;;;;;;5012479;28;20048;-80
2021/05/14 05:40:45;;;;;;;0.10;0.00;;;11.20;71.70;;;;;;5039405;28;20030;-80
2021/05/14 05:43:11;;;;;;;0.00;0.00;;;11.20;71.70;;;;;;4998446;28;20038;-79
2021/05/14 05:45:37;;;;;;;0.00;0.00;;;11.20;71.70;;;;;;4995335;28;20038;-79
2021/05/14 05:48:04;;;;;;;0.20;0.05;;;11.30;71.80;;;;;;5030974;28;20026;-79
2021/05/14 05:50:30;;;;;;;0.00;0.00;;;11.30;71.80;;;;;;5010309;28;20034;-80
2021/05/14 05:52:56;;;;;;;0.30;0.13;;;11.20;71.70;;;;;;5011850;28;20041;-79
2021/05/14 05:55:22;;;;;;;0.00;0.00;;;11.30;71.80;;;;;;5010812;28;20030;-80
2021/05/14 05:57:48;;;;;;;1.05;0.20;;;11.30;71.80;;;;;;5011537;28;20046;-80
2021/05/14 06:00:15;;;;;;;0.00;0.00;;;11.30;71.70;;;;;;5013455;28;20090;-81
2021/05/14 06:02:41;;;;;;;0.63;0.10;;;11.30;71.80;;;;;;5011048;28;20034;-80
2021/05/14 06:05:09;;;;;;;0.00;0.00;;;11.30;71.80;;;;;;5010413;28;20023;-79
2021/05/14 06:07:35;;;;;;;0.00;0.00;;;11.30;71.90;;;;;;5010421;28;20064;-80
2021/05/14 06:10:03;;;;;;;0.00;0.00;;;11.30;71.90;;;;;;5011381;28;20118;-80
2021/05/14 06:12:29;;;;;;;1.85;0.15;;;11.30;71.90;;;;;;4995398;28;20490;-81
2021/05/14 06:14:56;;;;;;;0.50;0.05;;;11.40;71.90;;;;;;5041632;28;20030;-80
2021/05/14 06:17:22;;;;;;;0.10;0.05;;;11.40;71.90;;;;;;5010509;28;20038;-81
2021/05/14 06:19:54;;;;;;;0.00;0.00;;;11.50;71.90;;;;;;5011408;28;20030;-80
2021/05/14 06:22:20;;;;;;;0.17;0.08;;;11.50;71.90;;;;;;5011361;28;20509;-80
2021/05/14 06:24:46;;;;;;;0.55;0.00;;;11.50;71.90;;;;;;4994856;28;20049;-80
2021/05/14 06:27:12;;;;;;;0.00;0.00;;;11.60;71.90;;;;;;5031118;28;20039;-80
2021/05/14 06:29:38;;;;;;;0.55;0.28;;;11.60;71.90;;;;;;5011154;28;20419;-81
2021/05/14 06:32:05;;;;;;;0.32;0.00;;;11.60;71.90;;;;;;5011913;28;20034;-79
2021/05/14 06:34:31;;;;;;;0.03;0.00;;;11.70;72.00;;;;;;4993176;28;20034;-78
2021/05/14 06:36:57;;;;;;;3.13;0.20;;;11.70;72.00;;;;;;5012264;28;20046;-77
2021/05/14 06:39:23;;;;;;;0.20;0.00;;;11.70;72.00;;;;;;5013347;28;20052;-79
2021/05/14 06:41:49;;;;;;;0.00;0.00;;;11.80;72.10;;;;;;5023736;28;20041;-80
2021/05/14 06:44:15;;;;;;;0.28;0.20;;;11.80;72.10;;;;;;5010446;28;20497;-78
2021/05/14 06:46:43;;;;;;;0.32;0.17;;;11.80;72.10;;;;;;5008884;28;20041;-80
2021/05/14 06:49:09;;;;;;;0.10;0.00;;;11.80;72.10;;;;;;4998660;28;20391;-81
2021/05/14 06:51:35;;;;;;;1.80;0.38;;;11.80;72.10;;;;;;5043571;28;20029;-80
2021/05/14 06:54:02;;;;;;;3.42;0.10;;;11.80;72.10;;;;;;5011690;28;20046;-81
2021/05/14 06:56:28;;;;;;;0.30;0.00;;;11.80;72.10;;;;;;5002261;28;20042;-80
2021/05/14 06:58:54;;;;;;;0.63;0.20;;;11.90;72.20;;;;;;4998581;28;20042;-78
2021/05/14 07:01:22;;;;;;;0.17;0.10;;;11.90;72.20;;;;;;5008418;28;20030;-79
2021/05/14 07:03:48;;;;;;;0.10;0.00;;;11.90;72.20;;;;;;5009167;28;20034;-78
2021/05/14 07:06:15;;;;;;;0.45;0.10;;;11.90;72.20;;;;;;5030625;28;20035;-78
2021/05/14 07:08:45;;;;;;;0.90;0.10;;;12.00;72.20;;;;;;5001473;28;20049;-80
2021/05/14 07:11:11;;;;;;;0.20;0.05;;;12.00;72.20;;;;;;5019655;28;20383;-80
2021/05/14 07:13:37;;;;;;;0.60;0.30;;;12.10;72.20;;;;;;5008885;28;20037;-77
2021/05/14 07:16:03;;;;;;;5.57;0.43;;;12.00;72.20;;;;;;5009956;28;20383;-78
2021/05/14 07:18:29;;;;;;;4.57;0.20;;;12.10;72.20;;;;;;5034951;28;20034;-78
2021/05/14 07:20:55;;;;;;;0.15;0.05;;;12.10;72.20;;;;;;5025151;28;20045;-80
2021/05/14 07:23:22;;;;;;;0.20;0.10;;;12.10;72.20;;;;;;5038444;28;20038;-80
2021/05/14 07:25:48;;;;;;;0.13;0.05;;;12.10;72.30;;;;;;5036313;28;20057;-80
2021/05/14 07:28:14;;;;;;;7.38;0.17;;;12.10;72.30;;;;;;5031845;28;20014;-80
2021/05/14 07:30:40;;;;;;;0.10;0.00;;;12.10;72.30;;;;;;5015158;28;20049;-80
2021/05/14 07:33:06;;;;;;;0.68;0.15;;;12.20;72.40;;;;;;5007293;28;20069;-80
2021/05/14 07:35:32;;;;;;;0.00;0.00;;;12.10;72.40;;;;;;5008279;28;20049;-80
2021/05/14 07:37:58;;;;;;;0.40;0.20;;;12.20;73.30;;;;;;5017056;28;20058;-80
2021/05/14 07:40:24;;;;;;;5.07;0.32;;;12.20;72.60;;;;;;5004081;28;20038;-79
2021/05/14 07:42:50;;;;;;;0.00;0.00;;;12.20;72.50;;;;;;5008899;28;20049;-80
2021/05/14 07:45:17;;;;;;;0.15;0.08;;;12.20;72.50;;;;;;4997055;28;20038;-77
2021/05/14 07:47:43;;;;;;;0.22;0.08;;;12.30;72.40;;;;;;5024620;28;20040;-77
2021/05/14 07:50:09;;;;;;;0.00;0.00;;;12.30;72.40;;;;;;4993427;28;20042;-81
2021/05/14 07:52:35;;;;;;;0.45;0.20;;;12.40;72.40;;;;;;5006844;28;20042;-82
2021/05/14 07:55:02;;;;;;;3.58;0.10;;;12.50;72.40;;;;;;5025299;28;20030;-78
2021/05/14 07:57:28;;;;;;;0.00;0.00;;;12.60;72.30;;;;;;5011898;28;20053;-78
2021/05/14 07:59:54;;;;;;;0.05;0.00;;;12.70;72.20;;;;;;5000106;28;20399;-78
2021/05/14 08:02:20;;;;;;;0.10;0.00;;;12.70;72.10;;;;;;4989554;28;20045;-80
2021/05/14 08:04:46;;;;;;;0.13;0.03;;;12.70;72.20;;;;;;5007794;28;20399;-79
2021/05/14 08:07:12;;;;;;;4.80;0.20;;;12.70;72.20;;;;;;5022517;28;20034;-77
2021/05/14 08:09:40;;;;;;;0.10;0.10;;;12.80;72.20;;;;;;5011242;28;20402;-78
2021/05/14 08:12:07;;;;;;;0.20;0.13;;;12.90;72.20;;;;;;5011451;28;20030;-77
2021/05/14 08:14:33;;;;;;;2.28;0.20;;;12.90;72.10;;;;;;5000861;28;20034;-78
2021/05/14 08:16:59;;;;;;;1.45;0.15;;;13.10;72.10;;;;;;5003954;28;20034;-81
2021/05/14 08:19:25;;;;;;;3.80;0.20;;;13.20;72.00;;;;;;5008809;28;20391;-80
2021/05/14 08:21:51;;;;;;;2.63;0.40;;;13.20;71.80;;;;;;5009033;28;20037;-80
2021/05/14 08:24:17;;;;;;;0.30;0.10;;;13.40;71.80;;;;;;4993732;28;20042;-81
2021/05/14 08:26:43;;;;;;;0.20;0.00;;;13.40;71.70;;;;;;5008467;28;20459;-80
2021/05/14 08:29:10;;;;;;;0.10;0.00;;;13.50;71.70;;;;;;5008970;28;20041;-80
2021/05/14 08:31:39;;;;;;;0.15;0.05;;;13.50;71.70;;;;;;5008415;28;20029;-80
2021/05/14 08:34:06;;;;;;;0.10;0.00;;;13.50;71.70;;;;;;5008835;28;20033;-79
2021/05/14 08:36:32;;;;;;;1.70;0.47;;;13.60;71.70;;;;;;4992905;28;20361;-80
2021/05/14 08:38:58;;;;;;;0.00;0.00;;;13.60;71.80;;;;;;4991771;28;20034;-80
2021/05/14 08:41:25;;;;;;;5.05;0.10;;;13.60;71.80;;;;;;5008965;28;20030;-80
2021/05/14 08:43:52;;;;;;;0.57;0.10;;;13.70;72.60;;;;;;5007287;28;20026;-80
2021/05/14 08:46:18;;;;;;;0.20;0.10;;;13.70;71.80;;;;;;5008489;28;20045;-79
2021/05/14 08:48:45;;;;;;;0.28;0.20;;;13.80;71.80;;;;;;5008486;28;20030;-80
2021/05/14 08:51:12;;;;;;;0.00;0.00;;;13.80;71.70;;;;;;5015669;28;20049;-77
2021/05/14 08:53:47;;;;;;;1.30;0.20;;;13.90;71.80;;;;;;5001935;28;20054;-76
2021/05/14 08:56:13;;;;;;;0.47;0.00;;;13.90;71.80;;;;;;5023641;28;20026;-76
2021/05/14 08:58:41;;;;;;;0.93;0.40;;;14.00;71.70;;;;;;5009762;28;20493;-76
2021/05/14 09:01:07;;;;;;;0.38;0.25;;;14.10;71.70;;;;;;5011532;28;20033;-78
2021/05/14 09:03:57;;;;;;;0.40;0.20;;;14.20;71.50;;;;;;5022203;28;20093;-77
2021/05/14 09:06:29;;;;;;;0.10;0.00;;;14.30;71.40;;;;;;5011193;28;20037;-76
2021/05/14 09:08:57;;;;;;;2.83;0.10;;;14.50;71.30;;;;;;5043057;28;20228;-76
2021/05/14 09:11:36;;;;;;;0.43;0.13;;;14.60;71.00;;;;;;5009058;28;20025;-77
2021/05/14 09:14:04;;;;;;;0.00;0.00;;;14.60;70.80;;;;;;5007909;28;20360;-78
2021/05/14 09:16:43;;;;;;;0.08;0.00;;;14.70;70.80;;;;;;5000237;28;20033;-78
2021/05/14 09:19:10;;;;;;;1.05;0.20;;;14.80;70.80;;;;;;4994766;28;20061;-76
2021/05/14 09:21:37;;;;;;;0.17;0.00;;;15.00;70.50;;;;;;5029153;28;20033;-77
2021/05/14 09:24:04;;;;;;;0.38;0.10;;;15.10;70.50;;;;;;5015015;28;20050;-78
2021/05/14 09:26:30;;;;;;;0.20;0.10;;;15.10;70.40;;;;;;5011015;28;20273;-76
2021/05/14 09:28:57;;;;;;;0.30;0.10;;;15.20;70.30;;;;;;5010740;28;20026;-76
2021/05/14 09:31:26;;;;;;;0.08;0.00;;;15.30;70.10;;;;;;5009807;28;20026;-87
2021/05/14 09:33:59;;;;;;;0.05;0.00;;;15.50;70.10;;;;;;5013579;28;20045;-79
2021/05/14 09:36:27;;;;;;;0.00;0.00;;;15.70;69.90;;;;;;4978537;28;20042;-80
2021/05/14 09:39:00;;;;;;;0.13;0.00;;;16.00;69.60;;;;;;5037091;28;20395;-81
2021/05/14 09:41:45;;;;;;;0.35;0.20;;;16.20;69.20;;;;;;5011642;28;20029;-80
2021/05/14 09:44:13;;;;;;;0.77;0.13;;;16.50;68.80;;;;;;5013138;28;20383;-81
2021/05/14 09:46:40;;;;;;;0.22;0.00;;;16.90;68.20;;;;;;5014263;28;20029;-79
2021/05/14 09:49:20;;;;;;;0.52;0.20;;;17.20;67.70;;;;;;5009919;28;20033;-80
2021/05/14 09:51:48;;;;;;;0.03;0.00;;;17.40;67.30;;;;;;5011576;28;20499;-79
2021/05/14 09:54:25;;;;;;;0.00;0.00;;;17.40;67.10;;;;;;5010919;28;20053;-79
2021/05/14 09:59:43;;;;;;;0.25;0.10;;;17.30;67.40;;;;;;5035284;28;20034;-79
2021/05/14 10:02:19;;;;;;;0.15;0.03;;;17.30;67.40;;;;;;5016219;28;20495;-78
2021/05/14 10:04:45;;;;;;;10.13;1.10;;;17.50;67.30;;;;;;5004386;28;20502;-80
2021/05/14 10:07:11;;;;;;;0.13;0.00;;;17.60;67.00;;;;;;5009316;28;20377;-80
2021/05/14 10:09:39;;;;;;;3.40;0.10;;;17.70;66.80;;;;;;5027538;28;20311;-78
2021/05/14 10:12:05;;;;;;;0.22;0.00;;;17.70;66.70;;;;;;5031452;28;20484;-78
2021/05/14 10:14:31;;;;;;;0.20;0.00;;;17.50;66.80;;;;;;5022766;28;20030;-80
2021/05/14 10:16:57;;;;;;;1.83;0.65;;;17.40;67.20;;;;;;4988316;28;20410;-79
2021/05/14 10:19:23;;;;;;;1.92;0.08;;;17.20;67.40;;;;;;5012058;28;20030;-79
2021/05/14 10:21:50;;;;;;;0.30;0.10;;;17.10;67.60;;;;;;5000362;28;20038;-80
2021/05/14 10:24:44;;;;;;;1.10;0.10;;;17.10;67.70;;;;;;5005498;28;20034;-80
2021/05/14 10:27:27;;;;;;;0.30;0.10;;;17.00;67.70;;;;;;5009925;28;20033;-79
2021/05/14 10:29:54;;;;;;;0.00;0.00;;;17.00;67.70;;;;;;5039841;28;20037;-78
2021/05/14 10:32:39;;;;;;;0.85;0.38;;;16.90;67.60;;;;;;5007150;28;20034;-77
2021/05/14 10:35:09;;;;;;;0.28;0.00;;;16.90;67.60;;;;;;5012409;28;20048;-78
2021/05/14 10:38:08;;;;;;;0.00;0.00;;;16.80;67.70;;;;;;5004930;28;20053;-77
2021/05/14 10:40:34;;;;;;;0.30;0.00;;;16.90;67.70;;;;;;4972940;28;20035;-79
2021/05/14 10:43:01;;;;;;;0.15;0.08;;;17.00;67.50;;;;;;4987698;28;20034;-78
2021/05/14 10:45:40;;;;;;;0.00;0.00;;;17.00;67.30;;;;;;4987283;28;20607;-79
2021/05/14 10:48:20;;;;;;;0.30;0.10;;;17.00;67.10;;;;;;4960078;28;20038;-79
2021/05/14 10:50:52;;;;;;;0.10;0.00;;;16.90;67.10;;;;;;4991570;28;20053;-78
2021/05/14 10:53:33;;;;;;;0.20;0.10;;;16.80;67.30;;;;;;4987133;28;20090;-82
2021/05/14 10:56:08;;;;;;;;;;;16.70;67.40;;;;;;4982596;28;20085;-80
2021/05/14 10:58:37;;;;;;;0.38;0.10;;;16.70;67.60;;;;;;5002421;28;19914;-81
2021/05/14 11:01:04;;;;;;;0.00;0.00;;;16.70;67.40;;;;;;4989439;28;20038;-81
2021/05/14 11:03:31;;;;;;;0.00;0.00;;;16.70;67.40;;;;;;4966726;28;20034;-80
2021/05/14 11:06:09;;;;;;;0.03;0.00;;;16.70;67.20;;;;;;4991159;28;20107;-80
2021/05/14 11:08:35;;;;;;;2.35;0.10;;;16.60;67.20;;;;;;4987090;28;20149;-80
2021/05/14 11:11:03;;;;;;;0.00;0.00;;;16.60;67.30;;;;;;4985173;28;20047;-79
2021/05/14 11:13:53;;;;;;;0.00;0.00;;;16.40;67.40;;;;;;4961340;28;20039;-80
2021/05/14 11:16:38;;;;;;;0.13;0.00;;;16.40;67.50;;;;;;4992140;28;20041;-79
2021/05/14 11:19:31;;;;;;;0.10;0.00;;;16.40;67.50;;;;;;5010656;28;20038;-79
2021/05/14 11:22:00;;;;;;;0.10;0.00;;;16.40;67.50;;;;;;4977863;28;20084;-81
2021/05/14 11:24:50;;;;;;;0.88;0.00;;;16.40;67.50;;;;;;5011679;28;20483;-81
2021/05/14 11:27:17;;;;;;;2.45;0.10;;;16.50;67.40;;;;;;4990388;28;20045;-80
2021/05/14 11:29:54;;;;;;;0.20;0.03;;;16.50;67.30;;;;;;5000998;28;20499;-79
2021/05/14 11:32:22;;;;;;;0.00;0.00;;;16.40;67.30;;;;;;4974304;28;20489;-80
2021/05/14 11:35:04;;;;;;;0.05;0.00;;;16.30;67.40;;;;;;4989031;28;20038;-80
2021/05/14 11:37:37;;;;;;;0.05;0.00;;;16.30;67.40;;;;;;5004248;28;20069;-81
2021/05/14 11:40:17;;;;;;;0.00;0.00;;;16.20;67.60;;;;;;4992576;28;20395;-81
2021/05/14 11:42:45;;;;;;;0.08;0.00;;;16.10;67.80;;;;;;4992160;28;20033;-80
2021/05/14 11:45:13;;;;;;;0.10;0.10;;;16.00;68.30;;;;;;4991025;28;20395;-80
2021/05/14 11:48:09;;;;;;;0.03;0.00;;;15.90;68.10;;;;;;4988155;28;20042;-81
2021/05/14 11:50:40;;;;;;;0.45;0.10;;;15.90;68.40;;;;;;4921873;29;20039;-81
2021/05/14 11:53:07;;;;;;;0.05;0.00;;;15.80;68.40;;;;;;4911511;29;20051;-81
2021/05/14 11:55:34;;;;;;;0.10;0.00;;;15.70;68.50;;;;;;4926590;29;20402;-81
2021/05/14 11:58:00;;;;;;;0.25;0.10;;;15.70;68.50;;;;;;4915636;29;20417;-81
2021/05/14 12:00:30;;;;;;;0.85;0.05;;;15.70;68.50;;;;;;4915764;28;20044;-81
2021/05/14 12:02:58;;;;;;;0.00;0.00;;;15.80;68.50;;;;;;4930403;29;20036;-81
2021/05/14 12:05:25;;;;;;;0.13;0.03;;;15.80;68.20;;;;;;4930210;29;20031;-81
2021/05/14 12:07:52;;;;;;;0.10;0.00;;;15.90;68.10;;;;;;4943000;29;20044;-80
2021/05/14 12:10:19;;;;;;;1.00;0.10;;;16.00;67.90;;;;;;4942477;29;20036;-80
2021/05/14 12:12:50;;;;;;;0.30;0.10;;;16.10;67.70;;;;;;4930517;29;20560;-80
2021/05/14 12:15:23;;;;;;;3.30;0.17;;;16.20;67.40;;;;;;4913182;28;20032;-81
2021/05/14 12:17:51;;;;;;;5.68;0.30;;;16.30;67.40;;;;;;4914020;29;20035;-81
2021/05/14 12:20:19;;;;;;;0.00;0.00;;;16.40;67.20;;;;;;4937176;28;20051;-81
2021/05/14 12:22:47;;;;;;;0.15;0.00;;;16.40;67.10;;;;;;4905926;29;20028;-81
2021/05/14 12:25:13;;;;;;;0.00;0.00;;;16.60;67.10;;;;;;4929026;29;20047;-81
2021/05/14 12:27:40;;;;;;;3.50;0.10;;;16.60;67.00;;;;;;4990284;28;20042;-81
2021/05/14 12:30:08;;;;;;;0.00;0.00;;;16.60;67.00;;;;;;5038346;28;20041;-81
2021/05/14 12:32:35;;;;;;;0.05;0.00;;;16.60;67.00;;;;;;5010366;28;20415;-80
2021/05/14 12:35:02;;;;;;;4.22;0.20;;;16.60;67.00;;;;;;5007511;28;20038;-80
2021/05/14 12:37:28;;;;;;;5.82;0.20;;;16.60;67.00;;;;;;5007721;28;20049;-80
2021/05/14 12:39:54;;;;;;;0.00;0.00;;;16.60;67.00;;;;;;5010034;28;20041;-80
2021/05/14 12:42:30;;;;;;;0.00;0.00;;;16.60;67.10;;;;;;4993483;28;20061;-81
2021/05/14 12:44:59;;;;;;;3.50;0.00;;;16.50;67.00;;;;;;5021146;28;20040;-80
2021/05/14 12:47:28;;;;;;;0.20;0.13;;;16.50;67.00;;;;;;5007618;28;20041;-80
2021/05/14 12:50:05;;;;;;;0.40;0.10;;;16.50;66.90;;;;;;4990524;28;20046;-81
2021/05/14 12:52:32;;;;;;;0.10;0.00;;;16.50;66.80;;;;;;4999756;28;20049;-80
2021/05/14 12:55:05;;;;;;;0.10;0.00;;;16.50;66.80;;;;;;5008191;28;20060;-81
2021/05/14 12:57:33;;;;;;;0.00;0.00;;;16.60;66.80;;;;;;4984154;28;20047;-80
2021/05/14 13:00:04;;;;;;;0.08;0.00;;;16.50;66.70;;;;;;5019537;28;20418;-81